This is the latest recevied weather packets stored in our database for station/object IZ1RFL-3. If no packets are shown the sender has not sent any weather packets the latest 10 day(s).
| Time | Temp. | Humidity | Pressure | Rain* | Wind** | Luminosity | Snow |
|---|---|---|---|---|---|---|---|
| 1777699863 | 12.22° C | 61% | 1027.5 hPa | - | - | - | - |
| 1777698962 | 11.67° C | 61% | 1027.3 hPa | - | - | - | - |
| 1777698062 | 12.22° C | 60% | 1027.2 hPa | - | - | - | - |
| 1777697163 | 11.67° C | 60% | 1027.3 hPa | - | - | - | - |
| 1777696262 | 11.11° C | 63% | 1027.2 hPa | - | - | - | - |
| 1777695363 | 10° C | 65% | 1027 hPa | - | - | - | - |
| 1777694462 | 10.56° C | 64% | 1027.1 hPa | - | - | - | - |
| 1777693562 | 10.56° C | 64% | 1027 hPa | - | - | - | - |
| 1777692662 | 10.56° C | 64% | 1026.9 hPa | - | - | - | - |
| 1777691762 | 10.56° C | 65% | 1027 hPa | - | - | - | - |
| 1777690863 | 10.56° C | 65% | 1027 hPa | - | - | - | - |
| 1777689962 | 10.56° C | 64% | 1026.9 hPa | - | - | - | - |
| 1777689062 | 10.56° C | 63% | 1027 hPa | - | - | - | - |
| 1777688162 | 11.11° C | 62% | 1026.9 hPa | - | - | - | - |
| 1777687262 | 11.67° C | 59% | 1026.9 hPa | - | - | - | - |
| 1777686362 | 11.67° C | 59% | 1026.8 hPa | - | - | - | - |
| 1777685462 | 11.67° C | 58% | 1026.9 hPa | - | - | - | - |
| 1777684562 | 11.67° C | 59% | 1026.9 hPa | - | - | - | - |
| 1777683662 | 11.67° C | 59% | 1026.8 hPa | - | - | - | - |
| 1777682762 | 11.67° C | 57% | 1026.8 hPa | - | - | - | - |
| 1777681862 | 11.67° C | 58% | 1026.9 hPa | - | - | - | - |
| 1777680962 | 12.22° C | 57% | 1026.9 hPa | - | - | - | - |
| 1777680062 | 12.78° C | 54% | 1027 hPa | - | - | - | - |
| 1777679162 | 12.78° C | 51% | 1027 hPa | - | - | - | - |
| 1777678262 | 12.78° C | 52% | 1026.9 hPa | - | - | - | - |
* Rain since midnight (hover to see other rain measurements)
** Current wind speed in m/s (hover to see current wind gust speed)